Terminal Aerodrome Forecast
Issued by NWS

Home | Current Version | Previous Version | Text Only | Print | Product List | Glossary On
Versions: 1 2 3 4 5 6 7 8 9 10 11 12
000
FTUS45 KRIW 210500
TAFRKS
TAF
KRKS 210520Z 2106/2206 VRB10KT P6SM VCTS SCT070CB BKN100
     FM210700 22006KT P6SM VCSH SCT090 BKN120
     FM211300 24009KT P6SM FEW060 SCT090
     FM211900 26016G24KT P6SM VCTS SCT060CB BKN090
     FM220100 28008KT P6SM FEW080 SCT110=

USA.gov is the U.S. government's official web portal to all federal, state and local government web resources and services.